sensor_id;sensor_type;location;lat;lon;timestamp;pressure;altitude;pressure_sealevel;temperature;humidity
34482;BME280;20720;48.886;9.388;2023-03-04T00:01:42;98938.41;;;2.25;100.00
34482;BME280;20720;48.886;9.388;2023-03-04T00:04:08;98936.22;;;2.20;100.00
34482;BME280;20720;48.886;9.388;2023-03-04T00:06:33;98942.06;;;2.22;100.00
34482;BME280;20720;48.886;9.388;2023-03-04T00:08:58;98948.75;;;2.15;100.00
34482;BME280;20720;48.886;9.388;2023-03-04T00:11:24;98954.72;;;2.06;100.00
34482;BME280;20720;48.886;9.388;2023-03-04T00:13:49;98951.69;;;2.01;100.00
34482;BME280;20720;48.886;9.388;2023-03-04T00:16:14;98949.97;;;1.81;100.00
34482;BME280;20720;48.886;9.388;2023-03-04T00:18:40;98946.50;;;1.71;100.00
34482;BME280;20720;48.886;9.388;2023-03-04T00:21:05;98952.63;;;1.70;100.00
34482;BME280;20720;48.886;9.388;2023-03-04T00:23:30;98949.53;;;1.76;100.00
34482;BME280;20720;48.886;9.388;2023-03-04T00:25:55;98942.88;;;1.83;100.00
34482;BME280;20720;48.886;9.388;2023-03-04T00:28:20;98941.19;;;1.72;100.00
34482;BME280;20720;48.886;9.388;2023-03-04T00:30:46;98944.47;;;1.74;100.00
34482;BME280;20720;48.886;9.388;2023-03-04T00:33:11;98950.78;;;1.81;100.00
34482;BME280;20720;48.886;9.388;2023-03-04T00:35:36;98943.03;;;1.61;100.00
34482;BME280;20720;48.886;9.388;2023-03-04T00:38:01;98942.66;;;1.45;100.00
34482;BME280;20720;48.886;9.388;2023-03-04T00:40:27;98941.44;;;1.69;100.00
34482;BME280;20720;48.886;9.388;2023-03-04T00:42:52;98938.44;;;1.95;100.00
34482;BME280;20720;48.886;9.388;2023-03-04T00:45:17;98949.69;;;1.84;100.00
34482;BME280;20720;48.886;9.388;2023-03-04T00:47:42;98947.75;;;1.76;100.00
34482;BME280;20720;48.886;9.388;2023-03-04T00:50:08;98945.03;;;1.78;100.00
34482;BME280;20720;48.886;9.388;2023-03-04T00:52:33;98939.50;;;1.62;100.00
34482;BME280;20720;48.886;9.388;2023-03-04T00:54:58;98946.31;;;1.63;100.00
34482;BME280;20720;48.886;9.388;2023-03-04T00:57:23;98943.78;;;1.52;100.00
34482;BME280;20720;48.886;9.388;2023-03-04T00:59:49;98944.81;;;1.40;100.00
34482;BME280;20720;48.886;9.388;2023-03-04T01:02:14;98945.53;;;1.42;100.00
34482;BME280;20720;48.886;9.388;2023-03-04T01:04:39;98947.56;;;1.48;100.00
34482;BME280;20720;48.886;9.388;2023-03-04T01:07:05;98943.44;;;1.36;100.00
34482;BME280;20720;48.886;9.388;2023-03-04T01:09:31;98935.72;;;1.25;100.00
34482;BME280;20720;48.886;9.388;2023-03-04T01:11:56;98934.00;;;1.14;100.00
34482;BME280;20720;48.886;9.388;2023-03-04T01:14:21;98933.63;;;1.19;100.00
34482;BME280;20720;48.886;9.388;2023-03-04T01:16:47;98936.97;;;1.10;100.00
34482;BME280;20720;48.886;9.388;2023-03-04T01:19:12;98921.75;;;1.16;100.00
34482;BME280;20720;48.886;9.388;2023-03-04T01:21:38;98924.19;;;1.29;100.00
34482;BME280;20720;48.886;9.388;2023-03-04T01:24:03;98929.22;;;1.30;100.00
34482;BME280;20720;48.886;9.388;2023-03-04T01:26:28;98929.16;;;1.21;100.00
34482;BME280;20720;48.886;9.388;2023-03-04T01:28:53;98925.03;;;1.18;100.00
34482;BME280;20720;48.886;9.388;2023-03-04T01:31:18;98924.97;;;1.09;100.00
34482;BME280;20720;48.886;9.388;2023-03-04T01:33:44;98928.25;;;1.11;100.00
34482;BME280;20720;48.886;9.388;2023-03-04T01:36:09;98926.22;;;0.93;100.00
34482;BME280;20720;48.886;9.388;2023-03-04T01:38:34;98919.16;;;0.95;100.00
34482;BME280;20720;48.886;9.388;2023-03-04T01:41:00;98923.16;;;1.00;100.00
34482;BME280;20720;48.886;9.388;2023-03-04T01:43:28;98919.22;;;1.05;100.00
34482;BME280;20720;48.886;9.388;2023-03-04T01:45:55;98913.47;;;0.81;100.00
34482;BME280;20720;48.886;9.388;2023-03-04T01:48:23;98915.03;;;1.04;100.00
34482;BME280;20720;48.886;9.388;2023-03-04T01:50:49;98925.47;;;1.03;100.00
34482;BME280;20720;48.886;9.388;2023-03-04T01:53:22;98924.00;;;0.89;100.00
34482;BME280;20720;48.886;9.388;2023-03-04T01:55:48;98928.84;;;0.82;100.00
34482;BME280;20720;48.886;9.388;2023-03-04T01:58:13;98920.31;;;0.71;100.00
34482;BME280;20720;48.886;9.388;2023-03-04T02:00:38;98920.28;;;1.03;100.00
34482;BME280;20720;48.886;9.388;2023-03-04T02:03:05;98920.13;;;0.83;100.00
34482;BME280;20720;48.886;9.388;2023-03-04T02:05:32;98924.75;;;0.80;100.00
34482;BME280;20720;48.886;9.388;2023-03-04T02:07:58;98918.78;;;0.79;100.00
34482;BME280;20720;48.886;9.388;2023-03-04T02:10:24;98927.72;;;0.75;100.00
34482;BME280;20720;48.886;9.388;2023-03-04T02:12:50;98918.59;;;0.60;100.00
34482;BME280;20720;48.886;9.388;2023-03-04T02:15:15;98915.72;;;0.74;100.00
34482;BME280;20720;48.886;9.388;2023-03-04T02:17:40;98924.16;;;0.76;100.00
34482;BME280;20720;48.886;9.388;2023-03-04T02:22:39;98916.94;;;0.59;100.00
34482;BME280;20720;48.886;9.388;2023-03-04T02:25:08;98916.94;;;0.59;100.00
34482;BME280;20720;48.886;9.388;2023-03-04T02:27:35;98920.00;;;0.64;100.00
34482;BME280;20720;48.886;9.388;2023-03-04T02:30:00;98915.41;;;0.68;100.00
34482;BME280;20720;48.886;9.388;2023-03-04T02:32:25;98917.38;;;0.75;100.00
34482;BME280;20720;48.886;9.388;2023-03-04T02:34:50;98916.50;;;0.54;100.00
34482;BME280;20720;48.886;9.388;2023-03-04T02:37:16;98914.13;;;0.51;100.00
34482;BME280;20720;48.886;9.388;2023-03-04T02:39:42;98913.66;;;0.57;100.00
34482;BME280;20720;48.886;9.388;2023-03-04T02:42:08;98906.25;;;0.64;100.00
34482;BME280;20720;48.886;9.388;2023-03-04T02:44:35;98915.84;;;0.73;100.00
34482;BME280;20720;48.886;9.388;2023-03-04T02:47:01;98915.97;;;0.71;100.00
34482;BME280;20720;48.886;9.388;2023-03-04T02:49:27;98916.03;;;0.49;100.00
34482;BME280;20720;48.886;9.388;2023-03-04T02:54:31;98920.97;;;0.52;100.00
34482;BME280;20720;48.886;9.388;2023-03-04T02:56:58;98909.13;;;0.39;100.00
34482;BME280;20720;48.886;9.388;2023-03-04T02:59:23;98922.00;;;0.50;100.00
34482;BME280;20720;48.886;9.388;2023-03-04T03:01:49;98917.00;;;0.37;100.00
34482;BME280;20720;48.886;9.388;2023-03-04T03:04:14;98919.03;;;0.65;100.00
34482;BME280;20720;48.886;9.388;2023-03-04T03:06:41;98914.78;;;0.75;100.00
34482;BME280;20720;48.886;9.388;2023-03-04T03:09:06;98925.88;;;0.55;100.00
34482;BME280;20720;48.886;9.388;2023-03-04T03:11:32;98918.16;;;0.44;100.00
34482;BME280;20720;48.886;9.388;2023-03-04T03:13:57;98930.63;;;0.39;100.00
34482;BME280;20720;48.886;9.388;2023-03-04T03:16:23;98920.78;;;0.33;100.00
34482;BME280;20720;48.886;9.388;2023-03-04T03:18:48;98916.31;;;0.24;100.00
34482;BME280;20720;48.886;9.388;2023-03-04T03:21:13;98926.66;;;0.02;100.00
34482;BME280;20720;48.886;9.388;2023-03-04T03:23:38;98914.69;;;0.01;100.00
34482;BME280;20720;48.886;9.388;2023-03-04T03:26:04;98919.63;;;0.26;100.00
34482;BME280;20720;48.886;9.388;2023-03-04T03:28:29;98916.19;;;0.26;100.00
34482;BME280;20720;48.886;9.388;2023-03-04T03:30:55;98918.69;;;0.16;100.00
34482;BME280;20720;48.886;9.388;2023-03-04T03:33:20;98917.75;;;0.28;100.00
34482;BME280;20720;48.886;9.388;2023-03-04T03:35:45;98916.56;;;0.21;100.00
34482;BME280;20720;48.886;9.388;2023-03-04T03:38:10;98920.31;;;0.06;100.00
34482;BME280;20720;48.886;9.388;2023-03-04T03:40:35;98913.50;;;0.16;100.00
34482;BME280;20720;48.886;9.388;2023-03-04T03:43:00;98911.75;;;0.17;100.00
34482;BME280;20720;48.886;9.388;2023-03-04T03:45:26;98912.47;;;0.08;100.00
34482;BME280;20720;48.886;9.388;2023-03-04T03:47:51;98903.66;;;0.10;100.00
34482;BME280;20720;48.886;9.388;2023-03-04T03:50:16;98911.19;;;0.13;100.00
34482;BME280;20720;48.886;9.388;2023-03-04T03:52:41;98908.38;;;0.05;100.00
34482;BME280;20720;48.886;9.388;2023-03-04T03:55:07;98910.25;;;-0.08;100.00
34482;BME280;20720;48.886;9.388;2023-03-04T03:57:32;98906.63;;;0.06;100.00
34482;BME280;20720;48.886;9.388;2023-03-04T03:59:57;98911.28;;;0.00;100.00
34482;BME280;20720;48.886;9.388;2023-03-04T04:02:22;98913.56;;;-0.17;100.00
34482;BME280;20720;48.886;9.388;2023-03-04T04:04:48;98914.94;;;-0.13;100.00
34482;BME280;20720;48.886;9.388;2023-03-04T04:07:13;98916.34;;;-0.20;100.00
34482;BME280;20720;48.886;9.388;2023-03-04T04:09:38;98913.31;;;-0.14;100.00
34482;BME280;20720;48.886;9.388;2023-03-04T04:12:07;98922.94;;;-0.38;100.00
34482;BME280;20720;48.886;9.388;2023-03-04T04:14:32;98910.72;;;-0.14;100.00
34482;BME280;20720;48.886;9.388;2023-03-04T04:16:57;98912.00;;;-0.20;100.00
34482;BME280;20720;48.886;9.388;2023-03-04T04:19:23;98921.50;;;0.02;100.00
34482;BME280;20720;48.886;9.388;2023-03-04T04:21:48;98933.38;;;-0.18;100.00
34482;BME280;20720;48.886;9.388;2023-03-04T04:24:13;98932.16;;;-0.36;100.00
34482;BME280;20720;48.886;9.388;2023-03-04T04:26:38;98930.53;;;-0.37;100.00
34482;BME280;20720;48.886;9.388;2023-03-04T04:29:03;98925.72;;;-0.30;100.00
34482;BME280;20720;48.886;9.388;2023-03-04T04:31:29;98924.09;;;-0.31;100.00
34482;BME280;20720;48.886;9.388;2023-03-04T04:33:54;98923.84;;;-0.50;100.00
34482;BME280;20720;48.886;9.388;2023-03-04T04:36:19;98932.66;;;-0.42;100.00
34482;BME280;20720;48.886;9.388;2023-03-04T04:38:44;98932.91;;;-0.79;100.00
34482;BME280;20720;48.886;9.388;2023-03-04T04:41:17;98934.59;;;-0.67;100.00
34482;BME280;20720;48.886;9.388;2023-03-04T04:43:43;98921.25;;;-0.50;100.00
34482;BME280;20720;48.886;9.388;2023-03-04T04:46:08;98921.06;;;-0.25;100.00
34482;BME280;20720;48.886;9.388;2023-03-04T04:48:33;98921.97;;;-0.48;100.00
34482;BME280;20720;48.886;9.388;2023-03-04T04:50:58;98931.31;;;-0.58;100.00
34482;BME280;20720;48.886;9.388;2023-03-04T04:53:24;98924.75;;;-0.62;100.00
34482;BME280;20720;48.886;9.388;2023-03-04T04:55:49;98938.06;;;-0.79;100.00
34482;BME280;20720;48.886;9.388;2023-03-04T04:58:14;98934.53;;;-0.89;100.00
34482;BME280;20720;48.886;9.388;2023-03-04T05:00:39;98929.16;;;-0.75;100.00
34482;BME280;20720;48.886;9.388;2023-03-04T05:03:04;98938.69;;;-0.76;100.00
34482;BME280;20720;48.886;9.388;2023-03-04T05:05:29;98937.41;;;-0.70;100.00
34482;BME280;20720;48.886;9.388;2023-03-04T05:07:55;98940.44;;;-0.76;100.00
34482;BME280;20720;48.886;9.388;2023-03-04T05:10:20;98940.75;;;-0.81;100.00
34482;BME280;20720;48.886;9.388;2023-03-04T05:12:45;98939.91;;;-0.93;100.00
34482;BME280;20720;48.886;9.388;2023-03-04T05:15:10;98947.22;;;-0.75;100.00
34482;BME280;20720;48.886;9.388;2023-03-04T05:17:35;98942.72;;;-0.96;100.00
34482;BME280;20720;48.886;9.388;2023-03-04T05:20:01;98947.13;;;-1.09;100.00
34482;BME280;20720;48.886;9.388;2023-03-04T05:22:26;98947.19;;;-0.86;100.00
34482;BME280;20720;48.886;9.388;2023-03-04T05:24:52;98947.19;;;-0.86;100.00
34482;BME280;20720;48.886;9.388;2023-03-04T05:27:17;98959.91;;;-0.72;100.00
34482;BME280;20720;48.886;9.388;2023-03-04T05:29:42;98956.13;;;-0.79;100.00
34482;BME280;20720;48.886;9.388;2023-03-04T05:32:08;98963.06;;;-0.80;100.00
34482;BME280;20720;48.886;9.388;2023-03-04T05:34:33;98962.16;;;-1.03;100.00
34482;BME280;20720;48.886;9.388;2023-03-04T05:36:59;98949.97;;;-1.01;100.00
34482;BME280;20720;48.886;9.388;2023-03-04T05:39:24;98955.09;;;-0.77;100.00
34482;BME280;20720;48.886;9.388;2023-03-04T05:41:49;98954.81;;;-0.85;100.00
34482;BME280;20720;48.886;9.388;2023-03-04T05:44:14;98961.75;;;-0.85;100.00
34482;BME280;20720;48.886;9.388;2023-03-04T05:46:39;98958.69;;;-0.79;100.00
34482;BME280;20720;48.886;9.388;2023-03-04T05:49:05;98957.75;;;-0.89;100.00
34482;BME280;20720;48.886;9.388;2023-03-04T05:51:30;98960.47;;;-0.80;100.00
34482;BME280;20720;48.886;9.388;2023-03-04T05:53:55;98960.25;;;-0.77;100.00
34482;BME280;20720;48.886;9.388;2023-03-04T05:56:20;98961.53;;;-0.71;100.00
34482;BME280;20720;48.886;9.388;2023-03-04T05:58:45;98950.78;;;-0.65;100.00
34482;BME280;20720;48.886;9.388;2023-03-04T06:01:11;98961.09;;;-0.65;100.00
34482;BME280;20720;48.886;9.388;2023-03-04T06:03:37;98948.66;;;-0.71;100.00
34482;BME280;20720;48.886;9.388;2023-03-04T06:06:02;98950.50;;;-0.28;100.00
34482;BME280;20720;48.886;9.388;2023-03-04T06:08:27;98958.03;;;-0.14;100.00
34482;BME280;20720;48.886;9.388;2023-03-04T06:10:53;98965.06;;;-0.05;100.00
34482;BME280;20720;48.886;9.388;2023-03-04T06:13:19;98964.72;;;0.00;100.00
34482;BME280;20720;48.886;9.388;2023-03-04T06:15:45;98965.63;;;0.10;100.00
34482;BME280;20720;48.886;9.388;2023-03-04T06:18:10;98961.16;;;0.23;100.00
34482;BME280;20720;48.886;9.388;2023-03-04T06:20:35;98974.56;;;0.39;100.00
34482;BME280;20720;48.886;9.388;2023-03-04T06:23:01;98981.59;;;0.48;100.00
34482;BME280;20720;48.886;9.388;2023-03-04T06:25:26;98984.63;;;0.53;100.00
34482;BME280;20720;48.886;9.388;2023-03-04T06:27:51;98985.59;;;0.19;100.00
34482;BME280;20720;48.886;9.388;2023-03-04T06:30:17;98991.78;;;0.72;100.00
34482;BME280;20720;48.886;9.388;2023-03-04T06:32:42;99002.00;;;0.62;100.00
34482;BME280;20720;48.886;9.388;2023-03-04T06:35:08;98998.00;;;0.69;100.00
34482;BME280;20720;48.886;9.388;2023-03-04T06:37:34;99000.88;;;0.98;100.00
34482;BME280;20720;48.886;9.388;2023-03-04T06:39:59;99000.72;;;0.35;100.00
34482;BME280;20720;48.886;9.388;2023-03-04T06:42:24;99008.41;;;0.90;100.00
34482;BME280;20720;48.886;9.388;2023-03-04T06:44:49;99000.38;;;1.36;100.00
34482;BME280;20720;48.886;9.388;2023-03-04T06:47:14;99007.34;;;1.24;100.00
34482;BME280;20720;48.886;9.388;2023-03-04T06:49:40;99014.75;;;1.29;100.00
34482;BME280;20720;48.886;9.388;2023-03-04T06:52:06;99011.13;;;0.88;100.00
34482;BME280;20720;48.886;9.388;2023-03-04T06:54:31;99004.00;;;0.48;100.00
34482;BME280;20720;48.886;9.388;2023-03-04T06:56:56;99007.91;;;1.28;100.00
34482;BME280;20720;48.886;9.388;2023-03-04T06:59:22;99015.78;;;1.58;100.00
34482;BME280;20720;48.886;9.388;2023-03-04T07:01:47;99002.09;;;1.97;100.00
34482;BME280;20720;48.886;9.388;2023-03-04T07:04:12;99014.22;;;2.17;100.00
34482;BME280;20720;48.886;9.388;2023-03-04T07:06:38;99008.59;;;2.12;100.00
34482;BME280;20720;48.886;9.388;2023-03-04T07:09:03;99012.63;;;2.26;100.00
34482;BME280;20720;48.886;9.388;2023-03-04T07:11:28;99016.41;;;2.22;100.00
34482;BME280;20720;48.886;9.388;2023-03-04T07:13:54;99020.38;;;2.56;100.00
34482;BME280;20720;48.886;9.388;2023-03-04T07:16:20;99026.09;;;2.59;100.00
34482;BME280;20720;48.886;9.388;2023-03-04T07:18:45;99030.47;;;2.49;100.00
34482;BME280;20720;48.886;9.388;2023-03-04T07:21:11;99027.00;;;2.39;100.00
34482;BME280;20720;48.886;9.388;2023-03-04T07:23:37;99029.69;;;2.28;100.00
34482;BME280;20720;48.886;9.388;2023-03-04T07:26:03;99029.31;;;2.42;100.00
34482;BME280;20720;48.886;9.388;2023-03-04T07:28:28;99030.94;;;2.04;100.00
34482;BME280;20720;48.886;9.388;2023-03-04T07:30:53;99027.22;;;1.76;100.00
34482;BME280;20720;48.886;9.388;2023-03-04T07:33:19;99030.88;;;1.53;100.00
34482;BME280;20720;48.886;9.388;2023-03-04T07:35:44;99023.53;;;2.29;100.00
34482;BME280;20720;48.886;9.388;2023-03-04T07:38:09;99028.72;;;2.29;100.00
34482;BME280;20720;48.886;9.388;2023-03-04T07:40:35;99030.97;;;2.13;100.00
34482;BME280;20720;48.886;9.388;2023-03-04T07:43:00;99039.13;;;2.78;100.00
34482;BME280;20720;48.886;9.388;2023-03-04T07:45:25;99040.31;;;3.05;100.00
34482;BME280;20720;48.886;9.388;2023-03-04T07:47:50;99040.88;;;3.27;100.00
34482;BME280;20720;48.886;9.388;2023-03-04T07:50:16;99052.31;;;3.06;100.00
34482;BME280;20720;48.886;9.388;2023-03-04T07:52:42;99055.47;;;3.09;100.00
34482;BME280;20720;48.886;9.388;2023-03-04T07:55:08;99051.69;;;3.51;100.00
34482;BME280;20720;48.886;9.388;2023-03-04T07:57:33;99052.63;;;3.50;100.00
34482;BME280;20720;48.886;9.388;2023-03-04T07:59:59;99052.38;;;3.63;100.00
34482;BME280;20720;48.886;9.388;2023-03-04T08:02:24;99048.41;;;3.59;100.00
34482;BME280;20720;48.886;9.388;2023-03-04T08:04:49;99047.44;;;3.60;100.00
34482;BME280;20720;48.886;9.388;2023-03-04T08:07:15;99049.69;;;2.86;100.00
34482;BME280;20720;48.886;9.388;2023-03-04T08:09:40;99052.16;;;2.98;100.00
34482;BME280;20720;48.886;9.388;2023-03-04T08:12:06;99048.34;;;2.22;100.00
34482;BME280;20720;48.886;9.388;2023-03-04T08:14:31;99053.78;;;2.49;100.00
34482;BME280;20720;48.886;9.388;2023-03-04T08:16:56;99056.19;;;2.71;100.00
34482;BME280;20720;48.886;9.388;2023-03-04T08:19:21;99060.59;;;2.90;100.00
34482;BME280;20720;48.886;9.388;2023-03-04T08:21:46;99057.31;;;2.48;100.00
34482;BME280;20720;48.886;9.388;2023-03-04T08:24:12;99067.34;;;2.62;100.00
34482;BME280;20720;48.886;9.388;2023-03-04T08:26:41;99058.91;;;3.19;100.00
34482;BME280;20720;48.886;9.388;2023-03-04T08:29:07;99067.59;;;2.59;100.00
34482;BME280;20720;48.886;9.388;2023-03-04T08:31:32;99061.59;;;2.99;100.00
34482;BME280;20720;48.886;9.388;2023-03-04T08:33:57;99072.56;;;3.12;100.00
34482;BME280;20720;48.886;9.388;2023-03-04T08:36:22;99072.16;;;3.26;100.00
34482;BME280;20720;48.886;9.388;2023-03-04T08:38:48;99074.78;;;2.86;100.00
34482;BME280;20720;48.886;9.388;2023-03-04T08:41:13;99071.38;;;2.76;100.00
34482;BME280;20720;48.886;9.388;2023-03-04T08:43:39;99066.53;;;2.62;100.00
34482;BME280;20720;48.886;9.388;2023-03-04T08:46:04;99065.38;;;2.85;100.00
34482;BME280;20720;48.886;9.388;2023-03-04T08:48:30;99066.31;;;2.84;100.00
34482;BME280;20720;48.886;9.388;2023-03-04T08:50:55;99067.50;;;3.39;100.00
34482;BME280;20720;48.886;9.388;2023-03-04T08:53:20;99071.91;;;3.38;100.00
34482;BME280;20720;48.886;9.388;2023-03-04T08:55:46;99073.22;;;4.00;100.00
34482;BME280;20720;48.886;9.388;2023-03-04T08:58:11;99075.38;;;4.23;100.00
34482;BME280;20720;48.886;9.388;2023-03-04T09:00:38;99075.72;;;3.92;100.00
34482;BME280;20720;48.886;9.388;2023-03-04T09:03:03;99088.56;;;4.12;100.00
34482;BME280;20720;48.886;9.388;2023-03-04T09:05:29;99078.41;;;4.19;100.00
34482;BME280;20720;48.886;9.388;2023-03-04T09:07:54;99078.66;;;4.25;100.00
34482;BME280;20720;48.886;9.388;2023-03-04T09:10:20;99089.28;;;4.41;100.00
34482;BME280;20720;48.886;9.388;2023-03-04T09:12:45;99090.50;;;3.91;100.00
34482;BME280;20720;48.886;9.388;2023-03-04T09:15:11;99082.84;;;3.80;100.00
34482;BME280;20720;48.886;9.388;2023-03-04T09:17:36;99079.16;;;3.54;100.00
34482;BME280;20720;48.886;9.388;2023-03-04T09:20:01;99081.75;;;3.73;100.00
34482;BME280;20720;48.886;9.388;2023-03-04T09:22:27;99082.00;;;4.08;100.00
34482;BME280;20720;48.886;9.388;2023-03-04T09:24:52;99079.97;;;3.64;100.00
34482;BME280;20720;48.886;9.388;2023-03-04T09:27:17;99086.94;;;3.44;100.00
34482;BME280;20720;48.886;9.388;2023-03-04T09:29:42;99077.66;;;3.51;100.00
34482;BME280;20720;48.886;9.388;2023-03-04T09:32:08;99075.88;;;3.33;100.00
34482;BME280;20720;48.886;9.388;2023-03-04T09:34:33;99080.91;;;3.25;100.00
34482;BME280;20720;48.886;9.388;2023-03-04T09:36:59;99078.72;;;3.49;100.00
34482;BME280;20720;48.886;9.388;2023-03-04T09:39:24;99079.25;;;3.24;100.00
34482;BME280;20720;48.886;9.388;2023-03-04T09:41:49;99067.78;;;3.93;100.00
34482;BME280;20720;48.886;9.388;2023-03-04T09:44:21;99076.53;;;3.92;100.00
34482;BME280;20720;48.886;9.388;2023-03-04T09:46:48;99083.19;;;4.23;100.00
34482;BME280;20720;48.886;9.388;2023-03-04T09:49:13;99076.81;;;3.70;100.00
34482;BME280;20720;48.886;9.388;2023-03-04T09:51:42;99078.63;;;4.71;100.00
34482;BME280;20720;48.886;9.388;2023-03-04T09:56:56;99080.13;;;3.62;100.00
34482;BME280;20720;48.886;9.388;2023-03-04T09:59:24;99088.56;;;4.03;100.00
34482;BME280;20720;48.886;9.388;2023-03-04T10:06:48;99089.44;;;5.31;100.00
34482;BME280;20720;48.886;9.388;2023-03-04T10:09:25;99093.88;;;5.21;100.00
34482;BME280;20720;48.886;9.388;2023-03-04T10:19:27;99089.00;;;5.53;100.00
34482;BME280;20720;48.886;9.388;2023-03-04T10:21:54;99075.88;;;4.83;100.00
34482;BME280;20720;48.886;9.388;2023-03-04T10:24:20;99082.00;;;5.53;100.00
34482;BME280;20720;48.886;9.388;2023-03-04T10:27:00;99083.00;;;6.13;100.00
34482;BME280;20720;48.886;9.388;2023-03-04T10:29:26;99081.25;;;5.96;100.00
34482;BME280;20720;48.886;9.388;2023-03-04T10:31:52;99082.09;;;5.17;100.00
34482;BME280;20720;48.886;9.388;2023-03-04T10:34:19;99078.53;;;6.23;100.00
34482;BME280;20720;48.886;9.388;2023-03-04T10:37:06;99078.97;;;4.96;100.00
34482;BME280;20720;48.886;9.388;2023-03-04T10:39:35;99073.44;;;5.61;100.00
34482;BME280;20720;48.886;9.388;2023-03-04T10:42:02;99079.91;;;5.22;100.00
34482;BME280;20720;48.886;9.388;2023-03-04T10:44:28;99071.13;;;5.93;100.00
34482;BME280;20720;48.886;9.388;2023-03-04T10:46:54;99080.72;;;5.22;100.00
34482;BME280;20720;48.886;9.388;2023-03-04T10:49:20;99065.38;;;5.72;100.00
34482;BME280;20720;48.886;9.388;2023-03-04T10:51:47;99063.78;;;6.65;100.00
34482;BME280;20720;48.886;9.388;2023-03-04T10:54:23;99071.69;;;6.22;100.00
34482;BME280;20720;48.886;9.388;2023-03-04T10:57:03;99065.00;;;6.02;100.00
34482;BME280;20720;48.886;9.388;2023-03-04T11:01:55;99062.03;;;5.80;100.00
34482;BME280;20720;48.886;9.388;2023-03-04T11:04:23;99059.38;;;5.89;100.00
34482;BME280;20720;48.886;9.388;2023-03-04T11:06:52;99057.88;;;5.51;100.00
34482;BME280;20720;48.886;9.388;2023-03-04T11:09:25;99060.19;;;6.15;100.00
34482;BME280;20720;48.886;9.388;2023-03-04T11:11:54;99052.72;;;5.95;100.00
34482;BME280;20720;48.886;9.388;2023-03-04T11:14:23;99050.28;;;6.44;100.00
34482;BME280;20720;48.886;9.388;2023-03-04T11:16:54;99043.47;;;6.93;100.00
34482;BME280;20720;48.886;9.388;2023-03-04T11:19:20;99046.84;;;6.78;100.00
34482;BME280;20720;48.886;9.388;2023-03-04T11:21:47;99043.66;;;6.24;100.00
34482;BME280;20720;48.886;9.388;2023-03-04T11:24:14;99048.81;;;6.76;99.05
34482;BME280;20720;48.886;9.388;2023-03-04T11:26:45;99048.09;;;6.06;98.51
34482;BME280;20720;48.886;9.388;2023-03-04T11:29:24;99039.84;;;5.93;100.00
34482;BME280;20720;48.886;9.388;2023-03-04T11:31:53;99042.97;;;6.48;98.67
34482;BME280;20720;48.886;9.388;2023-03-04T11:42:04;99036.84;;;7.15;94.06
34482;BME280;20720;48.886;9.388;2023-03-04T11:44:34;99029.84;;;7.15;92.25
34482;BME280;20720;48.886;9.388;2023-03-04T11:52:26;99034.84;;;7.01;94.43
34482;BME280;20720;48.886;9.388;2023-03-04T12:00:16;99027.22;;;6.65;92.30
34482;BME280;20720;48.886;9.388;2023-03-04T12:08:02;99016.78;;;7.23;88.55
34482;BME280;20720;48.886;9.388;2023-03-04T12:22:51;98992.75;;;7.12;88.92
34482;BME280;20720;48.886;9.388;2023-03-04T12:25:23;98990.78;;;7.14;89.20
34482;BME280;20720;48.886;9.388;2023-03-04T12:28:11;98981.34;;;7.37;87.62
34482;BME280;20720;48.886;9.388;2023-03-04T12:33:20;98977.44;;;7.41;87.47
34482;BME280;20720;48.886;9.388;2023-03-04T12:35:51;98974.34;;;7.45;87.73
34482;BME280;20720;48.886;9.388;2023-03-04T12:38:29;98977.75;;;7.22;89.30
34482;BME280;20720;48.886;9.388;2023-03-04T12:41:09;98968.56;;;7.10;88.84
34482;BME280;20720;48.886;9.388;2023-03-04T12:43:58;98963.97;;;6.88;91.45
34482;BME280;20720;48.886;9.388;2023-03-04T12:46:36;98958.63;;;7.13;90.17
34482;BME280;20720;48.886;9.388;2023-03-04T12:54:32;98953.22;;;6.91;93.67
34482;BME280;20720;48.886;9.388;2023-03-04T12:57:03;98956.06;;;6.63;96.79
34482;BME280;20720;48.886;9.388;2023-03-04T12:59:33;98956.91;;;6.64;97.80
34482;BME280;20720;48.886;9.388;2023-03-04T13:02:10;98951.69;;;6.72;95.69
34482;BME280;20720;48.886;9.388;2023-03-04T13:04:48;98954.81;;;6.76;94.35
34482;BME280;20720;48.886;9.388;2023-03-04T13:12:16;98938.41;;;7.15;90.65
34482;BME280;20720;48.886;9.388;2023-03-04T13:20:24;98943.41;;;6.01;95.61
34482;BME280;20720;48.886;9.388;2023-03-04T13:23:02;98943.91;;;6.38;94.46
34482;BME280;20720;48.886;9.388;2023-03-04T13:46:39;98950.44;;;6.92;90.06
34482;BME280;20720;48.886;9.388;2023-03-04T13:56:26;98949.22;;;6.71;91.23
34482;BME280;20720;48.886;9.388;2023-03-04T13:59:03;98953.53;;;6.04;94.20
34482;BME280;20720;48.886;9.388;2023-03-04T14:01:30;98949.50;;;6.43;91.93
34482;BME280;20720;48.886;9.388;2023-03-04T14:03:56;98954.09;;;6.57;90.98
34482;BME280;20720;48.886;9.388;2023-03-04T14:06:22;98944.72;;;6.39;90.85
34482;BME280;20720;48.886;9.388;2023-03-04T14:08:48;98947.75;;;6.18;92.01
34482;BME280;20720;48.886;9.388;2023-03-04T14:11:15;98947.13;;;6.24;91.27
34482;BME280;20720;48.886;9.388;2023-03-04T14:13:42;98947.19;;;6.40;89.58
34482;BME280;20720;48.886;9.388;2023-03-04T14:16:08;98944.63;;;6.15;90.36
34482;BME280;20720;48.886;9.388;2023-03-04T14:18:33;98943.84;;;5.71;95.42
34482;BME280;20720;48.886;9.388;2023-03-04T14:20:58;98935.88;;;5.90;94.68
34482;BME280;20720;48.886;9.388;2023-03-04T14:23:25;98932.75;;;6.20;93.25
34482;BME280;20720;48.886;9.388;2023-03-04T14:25:51;98939.09;;;6.59;90.25
34482;BME280;20720;48.886;9.388;2023-03-04T14:28:17;98925.06;;;6.60;88.87
34482;BME280;20720;48.886;9.388;2023-03-04T14:30:50;98926.97;;;6.42;90.30
34482;BME280;20720;48.886;9.388;2023-03-04T14:33:23;98921.94;;;6.49;90.50
34482;BME280;20720;48.886;9.388;2023-03-04T14:35:52;98928.78;;;6.50;89.66
34482;BME280;20720;48.886;9.388;2023-03-04T14:38:23;98930.72;;;6.48;90.04
34482;BME280;20720;48.886;9.388;2023-03-04T14:40:50;98925.69;;;6.46;90.50
34482;BME280;20720;48.886;9.388;2023-03-04T14:43:18;98927.25;;;6.31;89.76